San Felipe, Texas
Current Conditions -  °F | °C
As of 1:35 PM on Thursday 27 Nov 2014 (Local Time) from KTME Reporting Station
Clear Clear  
Wind Chill: 17°   Ceiling: Unl
Heat Index: 17°   Visibility: 10mi
Dew Point: -4°   Wind: 6mph
Humidity: 24%   Direction: 30°NNE
Pressure: 30.44"   Gusts: NA
Location:  29.79°N, 96.1°W
Report Text: KTME 271935Z AUTO 03005KT 10SM CLR 17/M04 A3044 RMK AO2
Loading
Personal Weather Stations






























Interactive Weather Map New forecast layout! Learn more

10-Day Weather Forecast

Advertisements
Track Severe Weather on mobile